sensor_id;sensor_type;location;lat;lon;timestamp;temperature;humidity
42095;DHT22;27753;55.724;37.612;2023-06-10T00:01:29;13.30;70.20
42095;DHT22;27753;55.724;37.612;2023-06-10T00:03:56;13.20;70.30
42095;DHT22;27753;55.724;37.612;2023-06-10T00:06:22;13.10;70.50
42095;DHT22;27753;55.724;37.612;2023-06-10T00:08:50;13.10;71.00
42095;DHT22;27753;55.724;37.612;2023-06-10T00:11:16;13.10;71.20
42095;DHT22;27753;55.724;37.612;2023-06-10T00:13:42;13.00;71.40
42095;DHT22;27753;55.724;37.612;2023-06-10T00:16:08;13.00;71.50
42095;DHT22;27753;55.724;37.612;2023-06-10T00:18:34;13.00;71.50
42095;DHT22;27753;55.724;37.612;2023-06-10T00:21:04;12.90;71.80
42095;DHT22;27753;55.724;37.612;2023-06-10T00:23:31;12.90;72.10
42095;DHT22;27753;55.724;37.612;2023-06-10T00:26:00;12.80;72.20
42095;DHT22;27753;55.724;37.612;2023-06-10T00:28:26;12.80;72.30
42095;DHT22;27753;55.724;37.612;2023-06-10T00:30:51;12.70;72.40
42095;DHT22;27753;55.724;37.612;2023-06-10T00:33:17;12.70;72.30
42095;DHT22;27753;55.724;37.612;2023-06-10T00:35:43;12.70;72.40
42095;DHT22;27753;55.724;37.612;2023-06-10T00:38:09;12.60;72.40
42095;DHT22;27753;55.724;37.612;2023-06-10T00:40:43;12.60;72.50
42095;DHT22;27753;55.724;37.612;2023-06-10T00:43:10;12.60;72.80
42095;DHT22;27753;55.724;37.612;2023-06-10T00:45:36;12.60;72.90
42095;DHT22;27753;55.724;37.612;2023-06-10T00:48:02;12.60;73.00
42095;DHT22;27753;55.724;37.612;2023-06-10T00:50:28;12.60;73.10
42095;DHT22;27753;55.724;37.612;2023-06-10T00:52:56;12.60;73.20
42095;DHT22;27753;55.724;37.612;2023-06-10T00:55:23;12.50;72.70
42095;DHT22;27753;55.724;37.612;2023-06-10T00:57:50;12.40;73.50
42095;DHT22;27753;55.724;37.612;2023-06-10T01:00:17;12.50;73.80
42095;DHT22;27753;55.724;37.612;2023-06-10T01:02:43;12.40;74.00
42095;DHT22;27753;55.724;37.612;2023-06-10T01:05:09;12.40;74.00
42095;DHT22;27753;55.724;37.612;2023-06-10T01:10:38;12.50;74.20
42095;DHT22;27753;55.724;37.612;2023-06-10T01:13:08;12.70;74.30
42095;DHT22;27753;55.724;37.612;2023-06-10T01:15:37;12.70;74.00
42095;DHT22;27753;55.724;37.612;2023-06-10T01:18:05;12.80;73.80
42095;DHT22;27753;55.724;37.612;2023-06-10T01:20:36;12.90;73.50
42095;DHT22;27753;55.724;37.612;2023-06-10T01:23:06;13.00;73.10
42095;DHT22;27753;55.724;37.612;2023-06-10T01:25:33;13.00;73.20
42095;DHT22;27753;55.724;37.612;2023-06-10T01:28:07;12.90;73.00
42095;DHT22;27753;55.724;37.612;2023-06-10T01:33:43;12.80;73.40
42095;DHT22;27753;55.724;37.612;2023-06-10T01:36:12;12.70;73.80
42095;DHT22;27753;55.724;37.612;2023-06-10T01:38:47;12.70;74.10
42095;DHT22;27753;55.724;37.612;2023-06-10T01:41:15;12.70;74.30
42095;DHT22;27753;55.724;37.612;2023-06-10T01:43:44;12.60;74.70
42095;DHT22;27753;55.724;37.612;2023-06-10T01:46:10;12.60;75.60
42095;DHT22;27753;55.724;37.612;2023-06-10T01:48:37;12.50;75.20
42095;DHT22;27753;55.724;37.612;2023-06-10T01:51:03;12.50;75.50
42095;DHT22;27753;55.724;37.612;2023-06-10T01:53:29;12.50;75.50
42095;DHT22;27753;55.724;37.612;2023-06-10T01:55:55;12.50;75.70
42095;DHT22;27753;55.724;37.612;2023-06-10T01:58:21;12.50;75.50
42095;DHT22;27753;55.724;37.612;2023-06-10T02:00:47;12.50;75.80
42095;DHT22;27753;55.724;37.612;2023-06-10T02:03:13;12.50;76.00
42095;DHT22;27753;55.724;37.612;2023-06-10T02:05:39;12.60;75.80
42095;DHT22;27753;55.724;37.612;2023-06-10T02:08:05;12.60;75.60
42095;DHT22;27753;55.724;37.612;2023-06-10T02:10:31;12.70;75.60
42095;DHT22;27753;55.724;37.612;2023-06-10T02:12:57;12.60;75.40
42095;DHT22;27753;55.724;37.612;2023-06-10T02:15:23;12.60;75.40
42095;DHT22;27753;55.724;37.612;2023-06-10T02:17:49;12.60;75.80
42095;DHT22;27753;55.724;37.612;2023-06-10T02:20:16;12.50;76.00
42095;DHT22;27753;55.724;37.612;2023-06-10T02:22:42;12.40;76.20
42095;DHT22;27753;55.724;37.612;2023-06-10T02:25:08;12.40;76.40
42095;DHT22;27753;55.724;37.612;2023-06-10T02:27:34;12.40;76.30
42095;DHT22;27753;55.724;37.612;2023-06-10T02:30:00;12.40;76.30
42095;DHT22;27753;55.724;37.612;2023-06-10T02:32:26;12.30;76.50
42095;DHT22;27753;55.724;37.612;2023-06-10T02:34:52;12.30;76.40
42095;DHT22;27753;55.724;37.612;2023-06-10T02:37:18;12.30;76.50
42095;DHT22;27753;55.724;37.612;2023-06-10T02:39:44;12.30;76.20
42095;DHT22;27753;55.724;37.612;2023-06-10T02:42:11;12.30;76.00
42095;DHT22;27753;55.724;37.612;2023-06-10T02:44:37;12.40;76.30
42095;DHT22;27753;55.724;37.612;2023-06-10T02:47:03;12.40;76.00
42095;DHT22;27753;55.724;37.612;2023-06-10T02:49:30;12.50;75.90
42095;DHT22;27753;55.724;37.612;2023-06-10T02:51:55;12.50;74.90
42095;DHT22;27753;55.724;37.612;2023-06-10T02:54:25;12.50;75.20
42095;DHT22;27753;55.724;37.612;2023-06-10T02:56:52;12.50;74.90
42095;DHT22;27753;55.724;37.612;2023-06-10T02:59:18;12.60;74.50
42095;DHT22;27753;55.724;37.612;2023-06-10T03:01:45;12.70;74.10
42095;DHT22;27753;55.724;37.612;2023-06-10T03:04:11;12.80;73.60
42095;DHT22;27753;55.724;37.612;2023-06-10T03:06:39;12.90;73.80
42095;DHT22;27753;55.724;37.612;2023-06-10T03:09:06;13.00;73.00
42095;DHT22;27753;55.724;37.612;2023-06-10T03:11:35;13.20;72.40
42095;DHT22;27753;55.724;37.612;2023-06-10T03:14:01;13.30;71.70
42095;DHT22;27753;55.724;37.612;2023-06-10T03:16:27;13.40;71.40
42095;DHT22;27753;55.724;37.612;2023-06-10T03:18:53;13.30;71.50
42095;DHT22;27753;55.724;37.612;2023-06-10T03:21:19;13.30;71.60
42095;DHT22;27753;55.724;37.612;2023-06-10T03:23:46;13.40;71.60
42095;DHT22;27753;55.724;37.612;2023-06-10T03:26:12;13.40;71.50
42095;DHT22;27753;55.724;37.612;2023-06-10T03:28:40;13.30;71.00
42095;DHT22;27753;55.724;37.612;2023-06-10T03:31:05;13.30;71.10
42095;DHT22;27753;55.724;37.612;2023-06-10T03:33:31;13.30;70.80
42095;DHT22;27753;55.724;37.612;2023-06-10T03:35:58;13.40;70.90
42095;DHT22;27753;55.724;37.612;2023-06-10T03:38:24;13.30;70.50
42095;DHT22;27753;55.724;37.612;2023-06-10T03:40:50;13.20;70.90
42095;DHT22;27753;55.724;37.612;2023-06-10T03:43:15;13.10;71.80
42095;DHT22;27753;55.724;37.612;2023-06-10T03:45:41;13.10;71.30
42095;DHT22;27753;55.724;37.612;2023-06-10T03:48:07;13.20;71.70
42095;DHT22;27753;55.724;37.612;2023-06-10T03:50:34;13.20;71.20
42095;DHT22;27753;55.724;37.612;2023-06-10T03:53:01;13.20;71.60
42095;DHT22;27753;55.724;37.612;2023-06-10T03:55:27;13.30;71.80
42095;DHT22;27753;55.724;37.612;2023-06-10T03:57:52;13.40;70.90
42095;DHT22;27753;55.724;37.612;2023-06-10T04:00:19;13.40;70.70
42095;DHT22;27753;55.724;37.612;2023-06-10T04:02:46;13.50;70.60
42095;DHT22;27753;55.724;37.612;2023-06-10T04:05:15;13.50;70.40
42095;DHT22;27753;55.724;37.612;2023-06-10T04:07:42;13.60;70.10
42095;DHT22;27753;55.724;37.612;2023-06-10T04:10:11;13.70;69.70
42095;DHT22;27753;55.724;37.612;2023-06-10T04:12:38;13.80;69.60
42095;DHT22;27753;55.724;37.612;2023-06-10T04:15:04;13.80;69.70
42095;DHT22;27753;55.724;37.612;2023-06-10T04:17:31;13.90;69.60
42095;DHT22;27753;55.724;37.612;2023-06-10T04:19:57;14.00;69.00
42095;DHT22;27753;55.724;37.612;2023-06-10T04:22:23;14.20;68.50
42095;DHT22;27753;55.724;37.612;2023-06-10T04:24:49;14.30;67.90
42095;DHT22;27753;55.724;37.612;2023-06-10T04:27:15;14.40;67.20
42095;DHT22;27753;55.724;37.612;2023-06-10T04:29:41;14.30;66.60
42095;DHT22;27753;55.724;37.612;2023-06-10T04:32:07;14.40;66.60
42095;DHT22;27753;55.724;37.612;2023-06-10T04:34:34;14.40;66.60
42095;DHT22;27753;55.724;37.612;2023-06-10T04:37:00;14.40;66.70
42095;DHT22;27753;55.724;37.612;2023-06-10T04:39:26;14.30;66.90
42095;DHT22;27753;55.724;37.612;2023-06-10T04:41:52;14.40;67.00
42095;DHT22;27753;55.724;37.612;2023-06-10T04:44:18;14.40;66.80
42095;DHT22;27753;55.724;37.612;2023-06-10T04:46:44;14.60;66.40
42095;DHT22;27753;55.724;37.612;2023-06-10T04:49:11;14.70;65.90
42095;DHT22;27753;55.724;37.612;2023-06-10T04:51:39;14.70;65.70
42095;DHT22;27753;55.724;37.612;2023-06-10T04:54:05;14.80;65.70
42095;DHT22;27753;55.724;37.612;2023-06-10T04:56:32;14.90;64.70
42095;DHT22;27753;55.724;37.612;2023-06-10T04:58:58;14.90;63.80
42095;DHT22;27753;55.724;37.612;2023-06-10T05:01:25;14.90;63.70
42095;DHT22;27753;55.724;37.612;2023-06-10T05:03:50;14.90;64.20
42095;DHT22;27753;55.724;37.612;2023-06-10T05:06:16;14.90;63.70
42095;DHT22;27753;55.724;37.612;2023-06-10T05:08:44;15.10;63.60
42095;DHT22;27753;55.724;37.612;2023-06-10T05:11:09;15.40;62.50
42095;DHT22;27753;55.724;37.612;2023-06-10T05:13:35;16.00;61.60
42095;DHT22;27753;55.724;37.612;2023-06-10T05:16:01;16.70;59.00
42095;DHT22;27753;55.724;37.612;2023-06-10T05:18:27;17.70;56.90
42095;DHT22;27753;55.724;37.612;2023-06-10T05:20:53;18.40;54.90
42095;DHT22;27753;55.724;37.612;2023-06-10T05:23:20;19.30;53.70
42095;DHT22;27753;55.724;37.612;2023-06-10T05:25:46;20.20;51.70
42095;DHT22;27753;55.724;37.612;2023-06-10T05:28:12;20.90;49.90
42095;DHT22;27753;55.724;37.612;2023-06-10T05:30:38;21.30;48.80
42095;DHT22;27753;55.724;37.612;2023-06-10T05:33:04;21.80;48.20
42095;DHT22;27753;55.724;37.612;2023-06-10T05:35:30;22.70;45.70
42095;DHT22;27753;55.724;37.612;2023-06-10T05:37:56;23.40;44.80
42095;DHT22;27753;55.724;37.612;2023-06-10T05:40:22;23.30;44.20
42095;DHT22;27753;55.724;37.612;2023-06-10T05:42:48;22.80;44.20
42095;DHT22;27753;55.724;37.612;2023-06-10T05:45:14;23.10;44.30
42095;DHT22;27753;55.724;37.612;2023-06-10T05:47:41;23.90;43.20
42095;DHT22;27753;55.724;37.612;2023-06-10T05:50:07;23.80;42.80
42095;DHT22;27753;55.724;37.612;2023-06-10T05:52:34;23.80;42.30
42095;DHT22;27753;55.724;37.612;2023-06-10T05:55:01;24.40;41.60
42095;DHT22;27753;55.724;37.612;2023-06-10T05:57:27;25.00;40.70
42095;DHT22;27753;55.724;37.612;2023-06-10T05:59:52;25.60;40.30
42095;DHT22;27753;55.724;37.612;2023-06-10T06:02:18;26.50;39.30
42095;DHT22;27753;55.724;37.612;2023-06-10T06:04:44;27.10;38.40
42095;DHT22;27753;55.724;37.612;2023-06-10T06:07:10;26.40;38.10
42095;DHT22;27753;55.724;37.612;2023-06-10T06:09:35;25.80;39.00
42095;DHT22;27753;55.724;37.612;2023-06-10T06:12:04;25.20;39.60
42095;DHT22;27753;55.724;37.612;2023-06-10T06:14:32;25.60;39.70
42095;DHT22;27753;55.724;37.612;2023-06-10T06:16:58;26.90;38.80
42095;DHT22;27753;55.724;37.612;2023-06-10T06:19:23;27.10;37.10
42095;DHT22;27753;55.724;37.612;2023-06-10T06:21:49;26.00;38.00
42095;DHT22;27753;55.724;37.612;2023-06-10T06:24:16;24.80;39.60
42095;DHT22;27753;55.724;37.612;2023-06-10T06:26:41;24.90;40.80
42095;DHT22;27753;55.724;37.612;2023-06-10T06:29:07;26.10;39.60
42095;DHT22;27753;55.724;37.612;2023-06-10T06:31:33;27.20;38.10
42095;DHT22;27753;55.724;37.612;2023-06-10T06:33:59;27.20;37.90
42095;DHT22;27753;55.724;37.612;2023-06-10T06:36:26;27.30;37.60
42095;DHT22;27753;55.724;37.612;2023-06-10T06:38:51;27.90;36.80
42095;DHT22;27753;55.724;37.612;2023-06-10T06:41:17;27.40;36.30
42095;DHT22;27753;55.724;37.612;2023-06-10T06:43:43;27.30;37.10
42095;DHT22;27753;55.724;37.612;2023-06-10T06:46:09;28.10;36.60
42095;DHT22;27753;55.724;37.612;2023-06-10T06:48:35;29.40;34.80
42095;DHT22;27753;55.724;37.612;2023-06-10T06:51:01;27.70;34.50
42095;DHT22;27753;55.724;37.612;2023-06-10T06:53:27;25.50;36.60
42095;DHT22;27753;55.724;37.612;2023-06-10T06:55:52;23.60;39.60
42095;DHT22;27753;55.724;37.612;2023-06-10T06:58:18;23.00;40.80
42095;DHT22;27753;55.724;37.612;2023-06-10T07:00:44;22.50;41.90
42095;DHT22;27753;55.724;37.612;2023-06-10T07:03:10;23.20;41.70
42095;DHT22;27753;55.724;37.612;2023-06-10T07:05:37;24.00;40.90
42095;DHT22;27753;55.724;37.612;2023-06-10T07:08:03;24.30;40.50
42095;DHT22;27753;55.724;37.612;2023-06-10T07:10:29;25.50;38.70
42095;DHT22;27753;55.724;37.612;2023-06-10T07:12:55;26.20;37.90
42095;DHT22;27753;55.724;37.612;2023-06-10T07:15:21;27.00;36.70
42095;DHT22;27753;55.724;37.612;2023-06-10T07:17:47;27.90;36.30
42095;DHT22;27753;55.724;37.612;2023-06-10T07:20:13;29.50;35.30
42095;DHT22;27753;55.724;37.612;2023-06-10T07:22:40;28.60;33.70
42095;DHT22;27753;55.724;37.612;2023-06-10T07:25:07;26.50;35.80
42095;DHT22;27753;55.724;37.612;2023-06-10T07:27:33;24.20;38.10
42095;DHT22;27753;55.724;37.612;2023-06-10T07:30:01;22.80;40.70
42095;DHT22;27753;55.724;37.612;2023-06-10T07:32:27;21.90;42.10
42095;DHT22;27753;55.724;37.612;2023-06-10T07:34:53;22.10;43.50
42095;DHT22;27753;55.724;37.612;2023-06-10T07:37:19;24.40;41.10
42095;DHT22;27753;55.724;37.612;2023-06-10T07:39:45;26.80;37.20
42095;DHT22;27753;55.724;37.612;2023-06-10T07:42:16;28.30;35.70
42095;DHT22;27753;55.724;37.612;2023-06-10T07:44:42;29.80;34.20
42095;DHT22;27753;55.724;37.612;2023-06-10T07:47:08;31.40;32.50
42095;DHT22;27753;55.724;37.612;2023-06-10T07:49:34;33.00;31.10
42095;DHT22;27753;55.724;37.612;2023-06-10T07:52:00;33.00;30.00
42095;DHT22;27753;55.724;37.612;2023-06-10T07:54:26;31.20;30.20
42095;DHT22;27753;55.724;37.612;2023-06-10T07:56:51;30.00;32.00
42095;DHT22;27753;55.724;37.612;2023-06-10T07:59:18;29.80;32.10
42095;DHT22;27753;55.724;37.612;2023-06-10T08:01:44;29.20;32.60
42095;DHT22;27753;55.724;37.612;2023-06-10T08:04:11;29.80;32.40
42095;DHT22;27753;55.724;37.612;2023-06-10T08:06:37;30.80;32.10
42095;DHT22;27753;55.724;37.612;2023-06-10T08:09:03;31.60;31.20
42095;DHT22;27753;55.724;37.612;2023-06-10T08:11:29;32.20;30.40
42095;DHT22;27753;55.724;37.612;2023-06-10T08:13:55;32.10;30.50
42095;DHT22;27753;55.724;37.612;2023-06-10T08:16:21;32.60;30.20
42095;DHT22;27753;55.724;37.612;2023-06-10T08:18:47;33.10;29.80
42095;DHT22;27753;55.724;37.612;2023-06-10T08:21:13;33.60;29.70
42095;DHT22;27753;55.724;37.612;2023-06-10T08:23:38;33.40;29.00
42095;DHT22;27753;55.724;37.612;2023-06-10T08:26:04;32.60;28.80
42095;DHT22;27753;55.724;37.612;2023-06-10T08:28:30;31.50;29.60
42095;DHT22;27753;55.724;37.612;2023-06-10T08:30:56;32.20;29.20
42095;DHT22;27753;55.724;37.612;2023-06-10T08:33:22;32.70;28.70
42095;DHT22;27753;55.724;37.612;2023-06-10T08:35:48;33.40;27.90
42095;DHT22;27753;55.724;37.612;2023-06-10T08:38:13;32.20;28.70
42095;DHT22;27753;55.724;37.612;2023-06-10T08:40:39;31.50;28.80
42095;DHT22;27753;55.724;37.612;2023-06-10T08:43:06;30.70;29.00
42095;DHT22;27753;55.724;37.612;2023-06-10T08:45:32;29.90;28.80
42095;DHT22;27753;55.724;37.612;2023-06-10T08:48:05;28.60;28.70
42095;DHT22;27753;55.724;37.612;2023-06-10T08:53:02;27.10;29.70
42095;DHT22;27753;55.724;37.612;2023-06-10T08:55:35;26.50;31.30
42095;DHT22;27753;55.724;37.612;2023-06-10T08:58:02;27.20;31.10
42095;DHT22;27753;55.724;37.612;2023-06-10T09:00:29;26.60;30.90
42095;DHT22;27753;55.724;37.612;2023-06-10T09:02:59;25.10;32.50
42095;DHT22;27753;55.724;37.612;2023-06-10T09:05:27;24.60;34.30
42095;DHT22;27753;55.724;37.612;2023-06-10T09:07:57;25.10;33.60
42095;DHT22;27753;55.724;37.612;2023-06-10T09:10:22;24.40;34.40
42095;DHT22;27753;55.724;37.612;2023-06-10T09:12:51;23.70;34.90
42095;DHT22;27753;55.724;37.612;2023-06-10T09:15:17;23.20;35.90
42095;DHT22;27753;55.724;37.612;2023-06-10T09:17:43;23.80;35.70
42095;DHT22;27753;55.724;37.612;2023-06-10T09:20:09;26.20;34.20
42095;DHT22;27753;55.724;37.612;2023-06-10T09:22:35;28.70;31.70
42095;DHT22;27753;55.724;37.612;2023-06-10T09:25:09;30.70;30.60
42095;DHT22;27753;55.724;37.612;2023-06-10T09:27:54;30.60;28.20
42095;DHT22;27753;55.724;37.612;2023-06-10T09:33:13;29.50;29.40
42095;DHT22;27753;55.724;37.612;2023-06-10T09:35:48;30.40;28.60
42095;DHT22;27753;55.724;37.612;2023-06-10T09:38:20;30.00;28.50
42095;DHT22;27753;55.724;37.612;2023-06-10T09:40:54;28.50;29.60
42095;DHT22;27753;55.724;37.612;2023-06-10T09:43:21;26.30;30.80
42095;DHT22;27753;55.724;37.612;2023-06-10T09:45:50;24.70;33.40
42095;DHT22;27753;55.724;37.612;2023-06-10T09:48:19;23.10;35.00
42095;DHT22;27753;55.724;37.612;2023-06-10T09:50:46;21.90;37.20
42095;DHT22;27753;55.724;37.612;2023-06-10T09:53:12;21.10;38.50
42095;DHT22;27753;55.724;37.612;2023-06-10T09:55:39;20.50;39.20
42095;DHT22;27753;55.724;37.612;2023-06-10T09:58:05;20.60;39.70
42095;DHT22;27753;55.724;37.612;2023-06-10T10:00:34;21.20;38.80
42095;DHT22;27753;55.724;37.612;2023-06-10T10:03:00;22.30;38.00
42095;DHT22;27753;55.724;37.612;2023-06-10T10:05:27;23.90;37.10
42095;DHT22;27753;55.724;37.612;2023-06-10T10:07:53;25.90;33.20
42095;DHT22;27753;55.724;37.612;2023-06-10T10:10:20;25.40;32.10
42095;DHT22;27753;55.724;37.612;2023-06-10T10:12:48;24.40;33.00
42095;DHT22;27753;55.724;37.612;2023-06-10T10:15:15;23.10;34.50
42095;DHT22;27753;55.724;37.612;2023-06-10T10:20:35;24.20;35.50
42095;DHT22;27753;55.724;37.612;2023-06-10T10:23:03;25.80;33.40
42095;DHT22;27753;55.724;37.612;2023-06-10T10:25:35;26.60;32.30
42095;DHT22;27753;55.724;37.612;2023-06-10T10:28:12;28.20;31.40
42095;DHT22;27753;55.724;37.612;2023-06-10T10:30:41;28.10;30.90
42095;DHT22;27753;55.724;37.612;2023-06-10T10:33:14;26.50;30.70
42095;DHT22;27753;55.724;37.612;2023-06-10T10:35:41;24.60;32.50
42095;DHT22;27753;55.724;37.612;2023-06-10T10:38:07;22.70;34.30
42095;DHT22;27753;55.724;37.612;2023-06-10T10:40:34;21.50;36.30
42095;DHT22;27753;55.724;37.612;2023-06-10T10:43:01;20.90;37.60
42095;DHT22;27753;55.724;37.612;2023-06-10T10:45:31;20.60;37.90
42095;DHT22;27753;55.724;37.612;2023-06-10T10:47:59;20.30;38.00
42095;DHT22;27753;55.724;37.612;2023-06-10T10:50:30;19.90;38.60
42095;DHT22;27753;55.724;37.612;2023-06-10T10:53:04;19.80;38.70
42095;DHT22;27753;55.724;37.612;2023-06-10T10:55:30;19.70;39.20
42095;DHT22;27753;55.724;37.612;2023-06-10T11:00:30;19.70;39.50
42095;DHT22;27753;55.724;37.612;2023-06-10T11:05:37;19.50;39.30
42095;DHT22;27753;55.724;37.612;2023-06-10T11:08:04;19.10;40.20
42095;DHT22;27753;55.724;37.612;2023-06-10T11:10:36;18.90;40.90
42095;DHT22;27753;55.724;37.612;2023-06-10T11:13:15;18.70;41.40
42095;DHT22;27753;55.724;37.612;2023-06-10T11:15:45;18.60;41.40
42095;DHT22;27753;55.724;37.612;2023-06-10T11:18:30;18.60;41.00
42095;DHT22;27753;55.724;37.612;2023-06-10T11:21:02;18.60;41.00
42095;DHT22;27753;55.724;37.612;2023-06-10T11:26:29;18.80;40.40
42095;DHT22;27753;55.724;37.612;2023-06-10T11:32:11;18.70;40.00
42095;DHT22;27753;55.724;37.612;2023-06-10T11:34:24;18.60;40.20
42095;DHT22;27753;55.724;37.612;2023-06-10T11:36:53;18.60;40.30
42095;DHT22;27753;55.724;37.612;2023-06-10T11:39:20;18.60;40.00
42095;DHT22;27753;55.724;37.612;2023-06-10T11:41:48;18.70;39.90
42095;DHT22;27753;55.724;37.612;2023-06-10T11:44:16;18.60;40.60
42095;DHT22;27753;55.724;37.612;2023-06-10T11:46:42;18.60;40.30
42095;DHT22;27753;55.724;37.612;2023-06-10T11:49:08;18.50;39.90
42095;DHT22;27753;55.724;37.612;2023-06-10T11:51:36;18.30;40.70
42095;DHT22;27753;55.724;37.612;2023-06-10T11:54:03;18.00;41.10
42095;DHT22;27753;55.724;37.612;2023-06-10T11:56:31;17.90;41.30
42095;DHT22;27753;55.724;37.612;2023-06-10T11:59:07;18.00;41.00
42095;DHT22;27753;55.724;37.612;2023-06-10T12:01:37;18.00;40.50
42095;DHT22;27753;55.724;37.612;2023-06-10T12:04:12;18.10;40.70
42095;DHT22;27753;55.724;37.612;2023-06-10T12:09:25;18.30;40.00
42095;DHT22;27753;55.724;37.612;2023-06-10T12:12:01;18.60;39.80
42095;DHT22;27753;55.724;37.612;2023-06-10T12:14:59;18.70;39.30
42095;DHT22;27753;55.724;37.612;2023-06-10T12:20:03;18.80;39.40
42095;DHT22;27753;55.724;37.612;2023-06-10T12:22:40;18.70;39.20
42095;DHT22;27753;55.724;37.612;2023-06-10T12:25:06;18.70;39.40
42095;DHT22;27753;55.724;37.612;2023-06-10T12:27:33;18.60;39.90
42095;DHT22;27753;55.724;37.612;2023-06-10T12:30:00;18.50;40.20
42095;DHT22;27753;55.724;37.612;2023-06-10T12:32:40;18.30;40.60
42095;DHT22;27753;55.724;37.612;2023-06-10T12:35:07;18.20;40.80
42095;DHT22;27753;55.724;37.612;2023-06-10T12:37:34;18.00;40.90
42095;DHT22;27753;55.724;37.612;2023-06-10T12:40:01;18.00;41.50
42095;DHT22;27753;55.724;37.612;2023-06-10T12:42:32;18.10;41.80
42095;DHT22;27753;55.724;37.612;2023-06-10T12:45:01;18.00;42.20
42095;DHT22;27753;55.724;37.612;2023-06-10T12:47:31;17.80;42.80
42095;DHT22;27753;55.724;37.612;2023-06-10T12:49:58;17.80;42.90
42095;DHT22;27753;55.724;37.612;2023-06-10T12:52:25;17.80;42.60
42095;DHT22;27753;55.724;37.612;2023-06-10T12:54:51;17.80;42.80
42095;DHT22;27753;55.724;37.612;2023-06-10T12:57:17;17.60;43.00
42095;DHT22;27753;55.724;37.612;2023-06-10T12:59:43;17.50;43.10
42095;DHT22;27753;55.724;37.612;2023-06-10T13:02:16;17.50;43.70
42095;DHT22;27753;55.724;37.612;2023-06-10T13:04:45;17.30;43.70
42095;DHT22;27753;55.724;37.612;2023-06-10T13:07:12;17.40;43.80
42095;DHT22;27753;55.724;37.612;2023-06-10T13:09:37;17.30;44.30
42095;DHT22;27753;55.724;37.612;2023-06-10T13:12:04;17.30;44.40
42095;DHT22;27753;55.724;37.612;2023-06-10T13:14:30;17.30;44.10
42095;DHT22;27753;55.724;37.612;2023-06-10T13:16:56;17.40;44.50
42095;DHT22;27753;55.724;37.612;2023-06-10T13:19:22;17.50;43.90
42095;DHT22;27753;55.724;37.612;2023-06-10T13:21:48;17.40;43.70
42095;DHT22;27753;55.724;37.612;2023-06-10T13:24:14;17.50;43.60
42095;DHT22;27753;55.724;37.612;2023-06-10T13:26:40;17.50;43.30
42095;DHT22;27753;55.724;37.612;2023-06-10T13:29:06;17.60;43.40
42095;DHT22;27753;55.724;37.612;2023-06-10T13:31:33;17.80;42.80
42095;DHT22;27753;55.724;37.612;2023-06-10T13:33:59;17.90;41.70
42095;DHT22;27753;55.724;37.612;2023-06-10T13:36:25;17.90;41.60
42095;DHT22;27753;55.724;37.612;2023-06-10T13:38:51;17.90;42.10
42095;DHT22;27753;55.724;37.612;2023-06-10T13:41:17;18.80;42.50
42095;DHT22;27753;55.724;37.612;2023-06-10T13:43:42;19.70;41.50
42095;DHT22;27753;55.724;37.612;2023-06-10T13:46:08;19.40;40.50
42095;DHT22;27753;55.724;37.612;2023-06-10T13:48:34;18.90;41.20
42095;DHT22;27753;55.724;37.612;2023-06-10T13:51:00;18.50;41.40
42095;DHT22;27753;55.724;37.612;2023-06-10T13:53:26;18.20;41.90
42095;DHT22;27753;55.724;37.612;2023-06-10T13:55:52;18.00;42.00
42095;DHT22;27753;55.724;37.612;2023-06-10T13:58:18;17.70;42.40
42095;DHT22;27753;55.724;37.612;2023-06-10T14:00:44;17.70;42.90
42095;DHT22;27753;55.724;37.612;2023-06-10T14:03:10;17.70;42.60
42095;DHT22;27753;55.724;37.612;2023-06-10T14:05:35;17.70;42.60
42095;DHT22;27753;55.724;37.612;2023-06-10T14:08:01;17.70;43.00
42095;DHT22;27753;55.724;37.612;2023-06-10T14:10:27;17.90;42.80
42095;DHT22;27753;55.724;37.612;2023-06-10T14:12:53;18.80;41.80
42095;DHT22;27753;55.724;37.612;2023-06-10T14:15:19;19.90;39.80
42095;DHT22;27753;55.724;37.612;2023-06-10T14:17:45;20.70;38.10
42095;DHT22;27753;55.724;37.612;2023-06-10T14:20:12;21.40;37.00
42095;DHT22;27753;55.724;37.612;2023-06-10T14:22:38;21.90;35.90
42095;DHT22;27753;55.724;37.612;2023-06-10T14:25:04;21.90;35.50
42095;DHT22;27753;55.724;37.612;2023-06-10T14:27:30;21.70;35.60
42095;DHT22;27753;55.724;37.612;2023-06-10T14:29:56;20.90;37.10
42095;DHT22;27753;55.724;37.612;2023-06-10T14:32:21;20.60;38.30
42095;DHT22;27753;55.724;37.612;2023-06-10T14:34:47;20.50;39.00
42095;DHT22;27753;55.724;37.612;2023-06-10T14:37:13;20.40;39.40
42095;DHT22;27753;55.724;37.612;2023-06-10T14:39:39;19.90;40.00
42095;DHT22;27753;55.724;37.612;2023-06-10T14:42:05;18.90;41.50
42095;DHT22;27753;55.724;37.612;2023-06-10T14:44:31;18.20;42.60
42095;DHT22;27753;55.724;37.612;2023-06-10T14:46:57;17.80;43.40
42095;DHT22;27753;55.724;37.612;2023-06-10T14:49:23;17.50;44.10
42095;DHT22;27753;55.724;37.612;2023-06-10T14:51:49;17.20;44.60
42095;DHT22;27753;55.724;37.612;2023-06-10T14:54:15;17.20;44.80
42095;DHT22;27753;55.724;37.612;2023-06-10T14:56:41;17.50;44.20
42095;DHT22;27753;55.724;37.612;2023-06-10T14:59:07;17.50;43.90
42095;DHT22;27753;55.724;37.612;2023-06-10T15:01:33;17.10;44.20
42095;DHT22;27753;55.724;37.612;2023-06-10T15:03:59;16.80;44.60
42095;DHT22;27753;55.724;37.612;2023-06-10T15:06:24;16.60;45.10
42095;DHT22;27753;55.724;37.612;2023-06-10T15:08:50;16.50;45.30
42095;DHT22;27753;55.724;37.612;2023-06-10T15:11:16;16.40;45.30
42095;DHT22;27753;55.724;37.612;2023-06-10T15:13:42;16.30;45.40
42095;DHT22;27753;55.724;37.612;2023-06-10T15:16:08;16.20;45.90
42095;DHT22;27753;55.724;37.612;2023-06-10T15:18:34;16.20;45.50
42095;DHT22;27753;55.724;37.612;2023-06-10T15:20:59;16.20;45.20
42095;DHT22;27753;55.724;37.612;2023-06-10T15:23:25;16.20;45.30
42095;DHT22;27753;55.724;37.612;2023-06-10T15:25:53;16.20;44.70
42095;DHT22;27753;55.724;37.612;2023-06-10T15:28:21;16.10;44.90
42095;DHT22;27753;55.724;37.612;2023-06-10T15:30:47;16.10;45.00
42095;DHT22;27753;55.724;37.612;2023-06-10T15:33:16;16.00;45.00
42095;DHT22;27753;55.724;37.612;2023-06-10T15:35:42;16.00;44.90
42095;DHT22;27753;55.724;37.612;2023-06-10T15:38:08;15.90;45.00
42095;DHT22;27753;55.724;37.612;2023-06-10T15:40:34;15.90;45.10
42095;DHT22;27753;55.724;37.612;2023-06-10T15:43:00;15.90;44.60
42095;DHT22;27753;55.724;37.612;2023-06-10T15:45:29;15.90;44.70